This is the latest recevied weather packets stored in our database for station/object IT9CYW-10. If no packets are shown the sender has not sent any weather packets the latest 10 day(s).
| Time | Temp. | Humidity | Pressure | Rain* | Wind** | Luminosity | Snow |
|---|---|---|---|---|---|---|---|
| 1777558385 | 21.11° C | 65% | 996.4 hPa | - | - | 457 W/m² | - |
| 1777557485 | 22.22° C | 62% | 996.4 hPa | - | - | 555 W/m² | - |
| 1777556585 | 21.11° C | 68% | 996.2 hPa | - | - | 400 W/m² | - |
| 1777555684 | 21.67° C | 67% | 996.4 hPa | - | - | 321 W/m² | - |
| 1777554784 | 23.33° C | 53% | 996.2 hPa | - | - | 320 W/m² | - |
| 1777553884 | 23.89° C | 48% | 996.2 hPa | - | - | 736 W/m² | - |
| 1777552984 | 23.89° C | 47% | 996.4 hPa | - | - | 745 W/m² | - |
| 1777552084 | 23.89° C | 50% | 996.4 hPa | - | - | 760 W/m² | - |
| 1777551184 | 23.89° C | 53% | 996.2 hPa | - | - | 774 W/m² | - |
| 1777550284 | 23.89° C | 55% | 996.5 hPa | - | - | 781 W/m² | - |
| 1777549384 | 23.89° C | 56% | 996.4 hPa | - | - | 811 W/m² | - |
| 1777547587 | 23.33° C | 56% | 996.4 hPa | - | - | 841 W/m² | - |
| 1777546687 | 22.78° C | 59% | 996.4 hPa | - | - | 788 W/m² | - |
| 1777545787 | 22.22° C | 62% | 996.4 hPa | - | - | 468 W/m² | - |
| 1777544887 | 21.67° C | 65% | 996.5 hPa | - | - | 885 W/m² | - |
| 1777543987 | 23.33° C | 57% | 996.5 hPa | - | - | 884 W/m² | - |
| 1777543086 | 24.44° C | 52% | 996 hPa | - | - | 581 W/m² | - |
| 1777542186 | 23.89° C | 50% | 995.9 hPa | - | - | 794 W/m² | - |
| 1777541286 | 25° C | 44% | 996.2 hPa | - | - | 764 W/m² | - |
| 1777540385 | 23.89° C | 45% | 996 hPa | - | - | 701 W/m² | - |
| 1777539485 | 23.89° C | 42% | 996.2 hPa | - | - | 344 W/m² | - |
| 1777538585 | 23.89° C | 43% | 996.2 hPa | - | - | 731 W/m² | - |
| 1777537684 | 23.89° C | 40% | 996 hPa | - | - | 773 W/m² | - |
| 1777536783 | 22.78° C | 47% | 996.2 hPa | - | - | 703 W/m² | - |
| 1777535883 | 22.78° C | 50% | 996.2 hPa | - | - | 297 W/m² | - |
* Rain since midnight (hover to see other rain measurements)
** Current wind speed in m/s (hover to see current wind gust speed)